createdAt,value
2023-04-30T00:02:22.145Z,12.73
2023-04-30T00:07:24.013Z,13.80
2023-04-30T00:12:25.814Z,12.88
2023-04-30T00:17:27.647Z,12.07
2023-04-30T00:22:29.435Z,12.90
2023-04-30T00:27:31.977Z,10.63
2023-04-30T00:32:33.841Z,11.35
2023-04-30T00:37:35.895Z,12.25
2023-04-30T00:42:37.782Z,12.25
2023-04-30T00:47:39.626Z,11.45
2023-04-30T00:52:42.496Z,11.02
2023-04-30T00:57:44.277Z,13.40
2023-04-30T01:02:46.304Z,12.18
2023-04-30T01:07:48.548Z,12.43
2023-04-30T01:12:56.498Z,14.15
2023-04-30T01:18:07.625Z,13.57
2023-04-30T01:23:12.669Z,13.20
2023-04-30T01:28:21.956Z,15.07
2023-04-30T01:33:23.833Z,13.52
2023-04-30T01:38:38.457Z,12.57
2023-04-30T01:43:50.672Z,13.02
2023-04-30T01:49:03.556Z,12.15
2023-04-30T01:54:38.570Z,11.40
2023-04-30T01:59:42.944Z,12.20
2023-04-30T02:04:44.777Z,11.10
2023-04-30T02:09:46.653Z,12.20
2023-04-30T02:14:48.431Z,11.82
2023-04-30T02:19:50.366Z,11.13
2023-04-30T02:24:55.972Z,11.00
2023-04-30T02:29:58.614Z,11.63
2023-04-30T02:35:00.701Z,10.68
2023-04-30T02:40:02.446Z,11.65
2023-04-30T02:45:04.521Z,10.43
2023-04-30T02:50:07.047Z,9.68
2023-04-30T02:55:09.133Z,9.43
2023-04-30T03:00:11.550Z,9.80
2023-04-30T03:05:15.149Z,8.95
2023-04-30T03:10:19.140Z,7.95
2023-04-30T03:15:21.298Z,8.55
2023-04-30T03:20:23.227Z,9.52
2023-04-30T03:25:25.273Z,8.60
2023-04-30T03:30:27.015Z,8.18
2023-04-30T03:35:28.837Z,8.05
2023-04-30T03:40:30.769Z,7.93
2023-04-30T03:45:32.727Z,8.48
2023-04-30T03:50:34.730Z,8.10
2023-04-30T03:55:36.625Z,8.75
2023-04-30T04:00:41.614Z,8.00
2023-04-30T04:05:43.457Z,7.90
2023-04-30T04:10:45.485Z,7.88
2023-04-30T04:15:47.372Z,8.40
2023-04-30T04:20:49.166Z,7.63
2023-04-30T04:25:51.113Z,8.40
2023-04-30T04:30:53.538Z,8.48
2023-04-30T04:35:57.871Z,8.20
2023-04-30T04:40:59.645Z,8.02
2023-04-30T04:46:01.554Z,7.60
2023-04-30T04:51:03.392Z,7.20
2023-04-30T04:56:05.985Z,7.22
2023-04-30T05:01:07.769Z,7.32
2023-04-30T05:06:09.713Z,7.88
2023-04-30T05:11:13.558Z,7.70
2023-04-30T05:16:17.438Z,8.38
2023-04-30T05:21:19.254Z,8.38
2023-04-30T05:26:21.196Z,8.98
2023-04-30T05:31:23.189Z,8.57
2023-04-30T05:36:26.186Z,8.02
2023-04-30T05:41:28.129Z,8.93
2023-04-30T05:46:30.139Z,9.27
2023-04-30T05:51:32.591Z,10.30
2023-04-30T05:56:34.398Z,9.63
2023-04-30T06:01:36.248Z,12.35
2023-04-30T06:06:38.234Z,11.50
2023-04-30T06:11:42.365Z,13.63
2023-04-30T06:16:45.466Z,13.88
2023-04-30T06:21:47.461Z,16.80
2023-04-30T06:26:49.464Z,15.18
2023-04-30T06:31:52.360Z,15.60
2023-04-30T06:36:54.160Z,16.00
2023-04-30T06:41:56.003Z,15.90
2023-04-30T06:46:57.763Z,15.77
2023-04-30T06:51:59.600Z,16.80
2023-04-30T06:57:01.969Z,15.60
2023-04-30T07:02:03.849Z,16.15
2023-04-30T07:07:05.702Z,15.90
2023-04-30T07:12:07.624Z,15.98
2023-04-30T07:17:09.422Z,16.48
2023-04-30T07:22:11.425Z,15.30
2023-04-30T07:27:13.223Z,16.92
2023-04-30T07:32:16.489Z,18.08
2023-04-30T07:37:18.388Z,16.83
2023-04-30T07:42:20.244Z,17.38
2023-04-30T07:47:22.077Z,17.35
2023-04-30T07:52:23.910Z,16.30
2023-04-30T07:57:28.741Z,17.00
2023-04-30T08:02:30.770Z,17.13
2023-04-30T08:07:32.730Z,16.17
2023-04-30T08:12:37.216Z,16.55
2023-04-30T08:17:39.351Z,15.70
2023-04-30T08:22:41.741Z,15.90
2023-04-30T08:27:43.546Z,15.80
2023-04-30T08:32:46.484Z,14.70
2023-04-30T08:37:48.642Z,14.60
2023-04-30T08:43:17.827Z,14.18
2023-04-30T08:48:21.171Z,12.98
2023-04-30T08:53:23.036Z,12.77
2023-04-30T08:58:25.059Z,11.88
2023-04-30T09:03:28.379Z,12.52
2023-04-30T09:08:47.194Z,10.02
2023-04-30T09:13:52.683Z,10.65
2023-04-30T09:18:54.933Z,9.52
2023-04-30T09:24:01.779Z,10.38
2023-04-30T09:29:08.117Z,9.27
2023-04-30T09:34:10.429Z,8.85
2023-04-30T09:39:17.846Z,8.07
2023-04-30T09:44:30.230Z,7.15
2023-04-30T09:49:32.277Z,8.00
2023-04-30T09:54:34.384Z,8.43
2023-04-30T09:59:38.119Z,6.95
2023-04-30T10:04:43.886Z,5.95
2023-04-30T10:09:54.788Z,7.07
2023-04-30T10:15:06.261Z,5.32
2023-04-30T10:20:10.900Z,6.90
2023-04-30T10:25:14.658Z,6.25
2023-04-30T10:30:16.716Z,6.55
2023-04-30T10:35:27.305Z,6.05
2023-04-30T10:40:29.121Z,6.43
2023-04-30T10:45:38.529Z,6.05
2023-04-30T10:50:46.228Z,6.55
2023-04-30T10:56:00.779Z,4.93
2023-04-30T11:01:08.490Z,4.38
2023-04-30T11:06:15.139Z,3.83
2023-04-30T11:11:21.395Z,5.57
2023-04-30T11:16:34.332Z,4.47
2023-04-30T11:22:00.863Z,4.43
2023-04-30T11:27:06.329Z,5.07
2023-04-30T11:32:08.495Z,4.32
2023-04-30T11:37:16.292Z,4.65
2023-04-30T11:42:21.346Z,3.58
2023-04-30T11:47:23.243Z,3.78
2023-04-30T11:52:25.960Z,2.97
2023-04-30T11:57:34.653Z,2.38
2023-04-30T12:02:36.947Z,2.97
2023-04-30T12:07:39.241Z,2.58
2023-04-30T12:12:42.335Z,2.80
2023-04-30T12:17:45.341Z,2.50
2023-04-30T12:22:48.988Z,2.10
2023-04-30T12:27:53.306Z,3.08
2023-04-30T12:32:58.743Z,2.30
2023-04-30T12:38:06.023Z,2.47
2023-04-30T12:43:09.163Z,2.85
2023-04-30T12:48:11.536Z,2.33
2023-04-30T12:53:13.644Z,2.45
2023-04-30T12:58:16.698Z,2.08
2023-04-30T13:03:20.975Z,2.22
2023-04-30T13:08:23.579Z,2.20
2023-04-30T13:13:26.168Z,2.40
2023-04-30T13:18:27.997Z,2.05
2023-04-30T13:23:31.930Z,2.67
2023-04-30T13:28:35.636Z,2.17
2023-04-30T13:33:37.474Z,2.22
2023-04-30T13:38:39.612Z,2.45
2023-04-30T13:43:42.953Z,2.35
2023-04-30T13:48:48.172Z,2.30
2023-04-30T13:53:49.985Z,2.20
2023-04-30T13:58:52.100Z,2.38
2023-04-30T14:03:54.127Z,2.38
2023-04-30T14:08:56.351Z,1.85
2023-04-30T14:13:58.216Z,2.03
2023-04-30T14:19:00.004Z,2.47
2023-04-30T14:24:02.072Z,2.55
2023-04-30T14:29:03.938Z,2.47
2023-04-30T14:34:05.992Z,1.85
2023-04-30T14:39:09.049Z,1.83
2023-04-30T14:44:10.894Z,1.60
2023-04-30T14:49:13.067Z,1.60
2023-04-30T14:54:15.254Z,1.80
2023-04-30T14:59:17.786Z,1.52
2023-04-30T15:04:19.573Z,1.27
2023-04-30T15:09:21.761Z,1.60
2023-04-30T15:14:23.629Z,1.30
2023-04-30T15:19:25.709Z,1.60
2023-04-30T15:24:27.542Z,1.55
2023-04-30T15:29:29.474Z,1.15
2023-04-30T15:34:31.374Z,1.20
2023-04-30T15:39:33.137Z,1.20
2023-04-30T15:44:35.234Z,1.13
2023-04-30T15:49:37.063Z,1.10
2023-04-30T15:54:38.851Z,1.40
2023-04-30T15:59:41.131Z,0.98
2023-04-30T16:04:44.489Z,1.13
2023-04-30T16:09:49.149Z,1.10
2023-04-30T16:14:51.321Z,1.20
2023-04-30T16:19:53.381Z,1.38
2023-04-30T16:24:55.467Z,1.23
2023-04-30T16:29:57.435Z,1.02
2023-04-30T16:34:59.513Z,0.98
2023-04-30T16:40:01.885Z,1.10
2023-04-30T16:45:04.163Z,1.08
2023-04-30T16:50:06.892Z,1.02
2023-04-30T16:55:10.607Z,1.05
2023-04-30T17:00:14.362Z,1.10
2023-04-30T17:05:16.649Z,1.30
2023-04-30T17:10:19.704Z,1.38
2023-04-30T17:15:21.574Z,1.40
2023-04-30T17:20:23.588Z,1.20
2023-04-30T17:25:25.878Z,1.45
2023-04-30T17:30:28.733Z,1.20
2023-04-30T17:35:30.618Z,1.20
2023-04-30T17:40:32.944Z,1.75
2023-04-30T17:45:34.813Z,1.67
2023-04-30T17:50:36.938Z,1.55
2023-04-30T17:55:38.741Z,1.60
2023-04-30T18:00:43.561Z,1.77
2023-04-30T18:05:45.465Z,1.80
2023-04-30T18:10:48.216Z,2.00
2023-04-30T18:15:51.468Z,2.28
2023-04-30T18:20:53.506Z,1.90
2023-04-30T18:25:55.254Z,1.40
2023-04-30T18:30:57.081Z,1.92
2023-04-30T18:36:01.530Z,1.83
2023-04-30T18:41:09.520Z,2.13
2023-04-30T18:46:11.543Z,1.85
2023-04-30T18:51:13.318Z,1.73
2023-04-30T18:56:15.905Z,2.03
2023-04-30T19:01:18.966Z,1.95
2023-04-30T19:06:21.048Z,2.13
2023-04-30T19:11:23.223Z,2.20
2023-04-30T19:16:25.463Z,2.13
2023-04-30T19:21:28.521Z,2.15
2023-04-30T19:26:31.444Z,2.05
2023-04-30T19:31:35.235Z,1.98
2023-04-30T19:36:37.343Z,2.33
2023-04-30T19:41:39.328Z,2.13
2023-04-30T19:46:42.441Z,2.55
2023-04-30T19:51:44.441Z,2.42
2023-04-30T19:56:46.604Z,2.63
2023-04-30T20:01:48.696Z,3.00
2023-04-30T20:06:56.945Z,2.80
2023-04-30T20:11:59.548Z,2.35
2023-04-30T20:17:02.626Z,2.50
2023-04-30T20:22:05.177Z,2.60
2023-04-30T20:27:07.463Z,2.65
2023-04-30T20:32:09.547Z,2.80
2023-04-30T20:37:11.550Z,3.10
2023-04-30T20:42:13.603Z,2.67
2023-04-30T20:47:15.538Z,2.80
2023-04-30T20:52:17.760Z,2.53
2023-04-30T20:57:19.552Z,2.55
2023-04-30T21:02:21.571Z,2.65
2023-04-30T21:07:23.366Z,2.60
2023-04-30T21:12:25.376Z,2.47
2023-04-30T21:17:27.516Z,3.20
2023-04-30T21:22:29.385Z,3.25
2023-04-30T21:27:32.246Z,2.80
2023-04-30T21:32:34.171Z,3.50
2023-04-30T21:37:36.330Z,2.80
2023-04-30T21:42:38.343Z,2.97
2023-04-30T21:47:40.614Z,2.72
2023-04-30T21:52:42.716Z,2.78
2023-04-30T21:57:47.337Z,2.38
2023-04-30T22:02:50.944Z,2.60
2023-04-30T22:07:52.814Z,2.60
2023-04-30T22:12:54.793Z,2.45
2023-04-30T22:17:56.579Z,2.78
2023-04-30T22:22:58.712Z,3.20
2023-04-30T22:28:00.846Z,2.95
2023-04-30T22:33:02.970Z,2.60
2023-04-30T22:38:05.994Z,2.45
2023-04-30T22:43:09.430Z,2.40
2023-04-30T22:48:11.320Z,3.60
2023-04-30T22:53:13.376Z,2.53
2023-04-30T22:58:15.958Z,2.80
2023-04-30T23:03:17.869Z,2.90
2023-04-30T23:08:19.684Z,2.75
2023-04-30T23:13:21.520Z,2.75
2023-04-30T23:18:27.066Z,2.80
2023-04-30T23:23:29.597Z,2.72
2023-04-30T23:28:31.405Z,3.25
2023-04-30T23:33:33.395Z,2.78
2023-04-30T23:38:35.326Z,2.88
2023-04-30T23:43:37.092Z,3.33
2023-04-30T23:48:39.533Z,3.20
2023-04-30T23:53:41.599Z,3.53
2023-04-30T23:58:44.049Z,3.47
